Portada
METAR-TAF:

METAR-TAF

Aeropuertos :

Keetmanshoop, Namibia

latitud: 26-32S, longitud: 018-07E, altitud: 1067 m

Observación

El informe se hizo hace 55 minutos, a las 09:00 UTC
Viento 16 kt del norte-noreste
Temperatura 19°C
Humedad 30%
Presión 1030 hPa
Visibilidad 10 km o más
sin nubes por debajo de 1500 m y sin presencia de cumulonimbus.

METAR: FYKT 240900Z 02016KT CAVOK 19/01 Q1030

Hora: 11:55 (09:55 UTC)

Pronóstico

El informe se hizo hace 5 horas y 55 minutos, a las 04:00 UTC
Pronóstico válido del 24 a las 06 UTC al 25 a las 06 UTC
Viento 14 kt del norte-noreste
Visibilidad 10 km o más
sin nubes por debajo de 1500 m y sin presencia de cumulonimbus.

TAF: FYKT 240400Z 2406/2506 03014KT CAVOK

Observaciones y pronósticos meteorológicos de más de 4000 aeropuertos (mensajes METAR y TAF).

Los puntos amarillos y rojos representan las estaciones disponibles.

Ponga el ratón en el punto deseado para ver el nombre de la estación.

Haga clic para ver las observaciones y los pronósticos meteorológicos.

Para cambiar el mapa : haga clic en los botones verdes con una cruz de color negro para hacer un zoom, en el botón verde con un guión para alejar o en las flechas verdes para mapas adyacentes.


METAR-TAF: